createdAt,value
2022-09-12T00:00:52.248Z,100.00
2022-09-12T00:03:19.173Z,100.00
2022-09-12T00:05:47.454Z,100.00
2022-09-12T00:08:15.065Z,100.00
2022-09-12T00:10:43.913Z,100.00
2022-09-12T00:13:11.559Z,100.00
2022-09-12T00:15:43.608Z,100.00
2022-09-12T00:18:16.092Z,100.00
2022-09-12T00:20:45.629Z,100.00
2022-09-12T00:23:13.802Z,100.00
2022-09-12T00:25:46.074Z,100.00
2022-09-12T00:28:16.525Z,100.00
2022-09-12T00:30:45.437Z,100.00
2022-09-12T00:33:13.680Z,100.00
2022-09-12T00:35:49.599Z,100.00
2022-09-12T00:38:17.386Z,100.00
2022-09-12T00:40:45.270Z,100.00
2022-09-12T00:43:30.553Z,100.00
2022-09-12T00:46:01.973Z,100.00
2022-09-12T00:49:14.439Z,100.00
2022-09-12T00:51:48.290Z,100.00
2022-09-12T00:54:21.046Z,100.00
2022-09-12T00:56:50.336Z,100.00
2022-09-12T00:59:28.718Z,100.00
2022-09-12T01:01:56.640Z,100.00
2022-09-12T01:04:27.149Z,100.00
2022-09-12T01:06:57.213Z,100.00
2022-09-12T01:09:25.702Z,100.00
2022-09-12T01:11:53.608Z,100.00
2022-09-12T01:14:21.357Z,100.00
2022-09-12T01:16:50.077Z,100.00
2022-09-12T01:19:41.881Z,100.00
2022-09-12T01:22:49.910Z,100.00
2022-09-12T01:25:38.663Z,100.00
2022-09-12T01:28:29.513Z,100.00
2022-09-12T01:31:42.757Z,100.00
2022-09-12T01:34:28.140Z,100.00
2022-09-12T01:37:29.347Z,100.00
2022-09-12T01:40:22.106Z,100.00
2022-09-12T01:43:19.992Z,100.00
2022-09-12T01:46:14.567Z,100.00
2022-09-12T01:49:02.185Z,100.00
2022-09-12T01:51:38.874Z,100.00
2022-09-12T01:54:14.162Z,100.00
2022-09-12T01:56:43.087Z,100.00
2022-09-12T01:59:20.470Z,100.00
2022-09-12T02:02:07.333Z,100.00
2022-09-12T02:04:43.725Z,100.00
2022-09-12T02:07:37.359Z,100.00
2022-09-12T02:10:20.611Z,100.00
2022-09-12T02:12:56.655Z,100.00
2022-09-12T02:15:38.608Z,100.00
2022-09-12T02:18:06.914Z,100.00
2022-09-12T02:20:48.869Z,100.00
2022-09-12T02:23:23.948Z,100.00
2022-09-12T02:26:02.258Z,100.00
2022-09-12T02:28:35.343Z,100.00
2022-09-12T02:31:32.676Z,100.00
2022-09-12T02:34:30.990Z,100.00
2022-09-12T02:37:18.343Z,100.00
2022-09-12T02:39:45.726Z,100.00
2022-09-12T02:42:13.455Z,100.00
2022-09-12T02:44:41.065Z,100.00
2022-09-12T02:47:31.126Z,100.00
2022-09-12T02:49:59.354Z,100.00
2022-09-12T02:52:28.826Z,100.00
2022-09-12T02:54:57.684Z,100.00
2022-09-12T02:57:25.253Z,100.00
2022-09-12T02:59:57.282Z,100.00
2022-09-12T03:03:04.765Z,100.00
2022-09-12T03:05:56.429Z,100.00
2022-09-12T03:08:46.858Z,100.00
2022-09-12T03:11:41.588Z,100.00
2022-09-12T03:14:41.993Z,100.00
2022-09-12T03:17:27.497Z,100.00
2022-09-12T03:20:10.868Z,100.00
2022-09-12T03:22:53.717Z,100.00
2022-09-12T03:25:50.034Z,100.00
2022-09-12T03:28:19.876Z,100.00
2022-09-12T03:30:48.973Z,100.00
2022-09-12T03:33:23.199Z,100.00
2022-09-12T03:35:50.943Z,100.00
2022-09-12T03:38:18.650Z,100.00
2022-09-12T03:40:47.784Z,100.00
2022-09-12T03:43:16.246Z,100.00
2022-09-12T03:45:43.236Z,100.00
2022-09-12T03:48:10.235Z,100.00
2022-09-12T03:50:37.235Z,100.00
2022-09-12T03:53:04.417Z,100.00
2022-09-12T03:55:31.320Z,100.00
2022-09-12T03:57:58.219Z,100.00
2022-09-12T04:00:25.211Z,100.00
2022-09-12T04:02:58.840Z,100.00
2022-09-12T04:05:26.359Z,100.00
2022-09-12T04:07:53.329Z,100.00
2022-09-12T04:10:20.300Z,100.00
2022-09-12T04:12:47.584Z,100.00
2022-09-12T04:15:14.602Z,100.00
2022-09-12T04:17:41.560Z,100.00
2022-09-12T04:20:09.121Z,100.00
2022-09-12T04:22:36.224Z,100.00
2022-09-12T04:25:03.357Z,100.00
2022-09-12T04:27:30.885Z,100.00
2022-09-12T04:29:58.473Z,100.00
2022-09-12T04:32:25.417Z,100.00
2022-09-12T04:34:52.545Z,100.00
2022-09-12T04:37:19.547Z,100.00
2022-09-12T04:39:49.086Z,100.00
2022-09-12T04:42:16.627Z,100.00
2022-09-12T04:44:43.812Z,100.00
2022-09-12T04:47:10.864Z,100.00
2022-09-12T04:49:37.769Z,100.00
2022-09-12T04:52:04.781Z,100.00
2022-09-12T04:54:31.856Z,100.00
2022-09-12T04:56:59.549Z,100.00
2022-09-12T04:59:26.866Z,100.00
2022-09-12T05:01:54.201Z,100.00
2022-09-12T05:04:21.523Z,100.00
2022-09-12T05:06:48.612Z,100.00
2022-09-12T05:09:16.434Z,100.00
2022-09-12T05:14:33.803Z,100.00
2022-09-12T05:17:01.977Z,100.00
2022-09-12T05:19:31.027Z,100.00
2022-09-12T05:21:58.952Z,100.00
2022-09-12T05:24:26.171Z,100.00
2022-09-12T05:26:53.393Z,100.00
2022-09-12T05:29:20.318Z,100.00
2022-09-12T05:31:50.084Z,100.00
2022-09-12T05:34:17.044Z,100.00
2022-09-12T05:36:43.999Z,100.00
2022-09-12T05:39:11.368Z,100.00
2022-09-12T05:41:38.729Z,100.00
2022-09-12T05:44:07.256Z,100.00
2022-09-12T05:46:40.206Z,100.00
2022-09-12T05:49:09.990Z,100.00
2022-09-12T05:51:39.701Z,100.00
2022-09-12T05:54:08.159Z,100.00
2022-09-12T05:56:39.326Z,100.00
2022-09-12T05:59:28.422Z,100.00
2022-09-12T06:01:55.466Z,100.00
2022-09-12T06:04:23.754Z,94.58
2022-09-12T06:06:51.889Z,88.18
2022-09-12T06:09:18.831Z,81.47
2022-09-12T06:11:46.668Z,71.44
2022-09-12T06:14:16.948Z,71.29
2022-09-12T06:16:44.696Z,72.54
2022-09-12T06:19:23.160Z,71.70
2022-09-12T06:21:51.465Z,71.69
2022-09-12T06:24:20.202Z,73.04
2022-09-12T06:26:48.951Z,68.58
2022-09-12T06:29:16.651Z,64.99
2022-09-12T06:31:44.287Z,60.63
2022-09-12T06:34:14.061Z,60.73
2022-09-12T06:36:44.438Z,60.55
2022-09-12T06:39:14.462Z,59.22
2022-09-12T06:41:44.279Z,55.75
2022-09-12T06:44:21.584Z,54.84
2022-09-12T06:46:49.750Z,56.42
2022-09-12T06:49:17.728Z,52.88
2022-09-12T06:51:44.852Z,53.89
2022-09-12T06:54:17.056Z,50.13
2022-09-12T06:56:44.845Z,54.87
2022-09-12T06:59:11.988Z,55.27
2022-09-12T07:01:40.118Z,55.72
2022-09-12T07:04:07.458Z,58.34
2022-09-12T07:06:41.306Z,57.07
2022-09-12T07:09:13.505Z,59.67
2022-09-12T07:11:42.259Z,59.03
2022-09-12T07:14:13.750Z,58.90
2022-09-12T07:16:41.300Z,57.75
2022-09-12T07:19:09.034Z,51.63
2022-09-12T07:21:39.849Z,48.08
2022-09-12T07:24:09.545Z,49.12
2022-09-12T07:26:37.384Z,49.23
2022-09-12T07:29:32.282Z,48.04
2022-09-12T07:31:52.505Z,48.08
2022-09-12T07:34:19.825Z,48.97
2022-09-12T07:36:47.089Z,48.49
2022-09-12T07:39:14.391Z,47.22
2022-09-12T07:41:41.854Z,46.30
2022-09-12T07:44:09.223Z,43.31
2022-09-12T07:46:36.609Z,44.03
2022-09-12T07:49:04.217Z,44.10
2022-09-12T07:51:31.975Z,47.45
2022-09-12T07:53:59.402Z,49.22
2022-09-12T07:56:30.646Z,48.27
2022-09-12T07:58:58.880Z,46.45
2022-09-12T08:01:26.769Z,48.62
2022-09-12T08:03:58.581Z,48.68
2022-09-12T08:06:27.751Z,47.17
2022-09-12T08:08:56.868Z,45.39
2022-09-12T08:11:25.995Z,45.50
2022-09-12T08:13:57.054Z,45.51
2022-09-12T08:16:26.960Z,43.17
2022-09-12T08:18:54.330Z,42.29
2022-09-12T08:21:23.780Z,42.19
2022-09-12T08:23:56.197Z,41.52
2022-09-12T08:26:24.590Z,44.20
2022-09-12T08:28:53.178Z,42.55
2022-09-12T08:31:22.394Z,43.37
2022-09-12T08:33:50.214Z,40.92
2022-09-12T08:36:23.970Z,38.64
2022-09-12T08:38:59.289Z,35.29
2022-09-12T08:41:38.291Z,35.35
2022-09-12T08:44:26.907Z,37.11
2022-09-12T08:47:27.556Z,42.12
2022-09-12T08:50:09.615Z,39.92
2022-09-12T08:53:03.604Z,39.76
2022-09-12T08:55:59.276Z,42.47
2022-09-12T08:58:29.046Z,45.65
2022-09-12T09:01:22.362Z,46.30
2022-09-12T09:04:25.756Z,46.41
2022-09-12T09:07:28.889Z,48.37
2022-09-12T09:10:09.170Z,48.00
2022-09-12T09:13:38.255Z,47.89
2022-09-12T09:16:26.127Z,49.93
2022-09-12T09:18:54.788Z,47.62
2022-09-12T09:21:26.668Z,48.38
2022-09-12T09:24:02.866Z,48.00
2022-09-12T09:27:03.088Z,46.57
2022-09-12T09:29:42.385Z,44.84
2022-09-12T09:32:27.044Z,43.26
2022-09-12T09:34:54.262Z,43.83
2022-09-12T09:37:36.439Z,43.65
2022-09-12T09:40:35.705Z,42.14
2022-09-12T09:43:23.744Z,40.17
2022-09-12T09:45:52.994Z,41.07
2022-09-12T09:48:30.947Z,36.53
2022-09-12T09:51:03.584Z,34.65
2022-09-12T09:53:56.328Z,38.62
2022-09-12T09:56:40.249Z,40.84
2022-09-12T09:59:17.753Z,39.87
2022-09-12T10:01:59.987Z,40.56
2022-09-12T10:04:41.556Z,38.86
2022-09-12T10:07:21.662Z,42.58
2022-09-12T10:10:25.210Z,39.99
2022-09-12T10:13:16.646Z,39.36
2022-09-12T10:15:58.825Z,37.71
2022-09-12T10:18:42.777Z,38.36
2022-09-12T10:21:29.505Z,41.20
2022-09-12T10:24:48.698Z,39.88
2022-09-12T10:27:20.653Z,40.66
2022-09-12T10:29:54.570Z,37.83
2022-09-12T10:32:36.247Z,33.91
2022-09-12T10:35:25.474Z,37.33
2022-09-12T10:37:55.884Z,36.80
2022-09-12T10:40:31.583Z,38.73
2022-09-12T10:43:04.388Z,35.44
2022-09-12T10:45:35.891Z,31.96
2022-09-12T10:48:22.761Z,33.22
2022-09-12T10:50:49.632Z,33.72
2022-09-12T10:53:22.364Z,35.57
2022-09-12T10:56:07.391Z,33.57
2022-09-12T10:59:19.802Z,33.86
2022-09-12T11:01:53.150Z,36.36
2022-09-12T11:04:48.365Z,34.59
2022-09-12T11:07:38.246Z,33.56
2022-09-12T11:10:35.734Z,32.04
2022-09-12T11:13:32.630Z,31.80
2022-09-12T11:16:32.317Z,31.77
2022-09-12T11:19:38.411Z,33.56
2022-09-12T11:22:31.738Z,33.98
2022-09-12T11:25:10.746Z,33.05
2022-09-12T11:27:50.035Z,32.97
2022-09-12T11:30:18.792Z,32.29
2022-09-12T11:33:12.580Z,35.09
2022-09-12T11:35:51.886Z,35.09
2022-09-12T11:38:38.034Z,33.05
2022-09-12T11:41:07.933Z,32.57
2022-09-12T11:43:35.217Z,33.10
2022-09-12T11:46:22.887Z,30.75
2022-09-12T11:48:55.588Z,30.44
2022-09-12T11:51:53.300Z,33.72
2022-09-12T11:54:53.731Z,35.12
2022-09-12T11:57:33.880Z,33.75
2022-09-12T12:00:10.818Z,31.96
2022-09-12T12:02:44.538Z,29.81
2022-09-12T12:05:20.644Z,28.47
2022-09-12T12:08:01.037Z,29.29
2022-09-12T12:10:50.430Z,30.01
2022-09-12T12:13:25.478Z,30.87
2022-09-12T12:15:59.265Z,28.60
2022-09-12T12:18:32.629Z,28.95
2022-09-12T12:21:40.200Z,29.03
2022-09-12T12:24:10.101Z,29.10
2022-09-12T12:26:39.775Z,30.34
2022-09-12T12:29:18.443Z,30.10
2022-09-12T12:32:03.459Z,29.54
2022-09-12T12:34:41.838Z,30.57
2022-09-12T12:37:23.334Z,27.13
2022-09-12T12:39:51.101Z,24.63
2022-09-12T12:42:33.866Z,25.41
2022-09-12T12:45:09.567Z,26.45
2022-09-12T12:47:36.400Z,27.89
2022-09-12T12:50:08.513Z,29.17
2022-09-12T12:52:57.086Z,29.38
2022-09-12T12:55:31.216Z,29.59
2022-09-12T12:58:03.663Z,30.05
2022-09-12T13:00:40.240Z,29.26
2022-09-12T13:03:07.065Z,30.17
2022-09-12T13:05:46.470Z,30.00
2022-09-12T13:08:19.845Z,29.41
2022-09-12T13:10:58.350Z,30.67
2022-09-12T13:13:30.985Z,30.14
2022-09-12T13:15:58.700Z,29.00
2022-09-12T13:18:44.645Z,27.13
2022-09-12T13:21:21.550Z,28.01
2022-09-12T13:24:04.730Z,30.54
2022-09-12T13:26:43.856Z,31.38
2022-09-12T13:29:22.377Z,32.33
2022-09-12T13:31:57.115Z,33.94
2022-09-12T13:34:36.286Z,34.62
2022-09-12T13:37:34.270Z,34.81
2022-09-12T13:40:17.533Z,36.42
2022-09-12T13:43:12.020Z,35.33
2022-09-12T13:45:39.715Z,35.28
2022-09-12T13:48:16.785Z,34.97
2022-09-12T13:51:03.115Z,35.09
2022-09-12T13:53:45.014Z,35.28
2022-09-12T13:56:18.482Z,35.07
2022-09-12T13:58:57.875Z,35.50
2022-09-12T14:01:43.206Z,35.88
2022-09-12T14:04:44.220Z,35.39
2022-09-12T14:07:23.806Z,35.45
2022-09-12T14:09:59.904Z,35.11
2022-09-12T14:12:30.231Z,37.61
2022-09-12T14:14:57.832Z,34.85
2022-09-12T14:17:31.618Z,35.53
2022-09-12T14:20:08.852Z,36.58
2022-09-12T14:22:36.502Z,36.29
2022-09-12T14:25:03.945Z,36.72
2022-09-12T14:27:45.642Z,36.14
2022-09-12T14:30:34.836Z,36.61
2022-09-12T14:33:10.904Z,36.34
2022-09-12T14:35:47.721Z,36.35
2022-09-12T14:38:17.479Z,36.95
2022-09-12T14:40:52.983Z,35.43
2022-09-12T14:43:33.702Z,35.54
2022-09-12T14:46:17.051Z,36.59
2022-09-12T14:48:51.141Z,37.16
2022-09-12T14:51:51.470Z,37.11
2022-09-12T14:54:40.164Z,36.84
2022-09-12T14:57:45.144Z,37.08
2022-09-12T15:00:12.036Z,38.50
2022-09-12T15:02:40.549Z,37.70
2022-09-12T15:05:07.337Z,37.56
2022-09-12T15:07:42.283Z,37.58
2022-09-12T15:10:18.620Z,37.21
2022-09-12T15:12:45.493Z,37.42
2022-09-12T15:15:21.073Z,36.82
2022-09-12T15:17:47.965Z,37.26
2022-09-12T15:20:14.931Z,37.05
2022-09-12T15:22:42.376Z,37.59
2022-09-12T15:25:12.982Z,37.24
2022-09-12T15:27:42.718Z,37.67
2022-09-12T15:30:12.107Z,38.13
2022-09-12T15:32:42.438Z,37.81
2022-09-12T15:35:22.551Z,38.25
2022-09-12T15:37:50.196Z,38.08
2022-09-12T15:40:17.503Z,39.29
2022-09-12T15:42:44.597Z,38.89
2022-09-12T15:45:27.126Z,38.30
2022-09-12T15:47:55.000Z,37.99
2022-09-12T15:50:22.366Z,38.06
2022-09-12T15:52:49.451Z,38.00
2022-09-12T15:55:23.767Z,38.38
2022-09-12T15:57:51.042Z,38.09
2022-09-12T16:00:19.163Z,38.29
2022-09-12T16:02:50.137Z,38.62
2022-09-12T16:05:24.316Z,38.28
2022-09-12T16:07:53.985Z,38.32
2022-09-12T16:10:25.743Z,39.04
2022-09-12T16:12:52.901Z,39.45
2022-09-12T16:15:23.412Z,39.42
2022-09-12T16:17:50.839Z,39.56
2022-09-12T16:20:19.286Z,40.28
2022-09-12T16:22:46.560Z,41.02
2022-09-12T16:25:13.921Z,40.99
2022-09-12T16:27:41.326Z,39.70
2022-09-12T16:30:09.522Z,40.28
2022-09-12T16:32:36.989Z,41.43
2022-09-12T16:35:04.348Z,41.51
2022-09-12T16:37:32.213Z,41.27
2022-09-12T16:39:59.255Z,41.35
2022-09-12T16:42:26.248Z,41.57
2022-09-12T16:44:53.044Z,41.83
2022-09-12T16:47:19.910Z,41.73
2022-09-12T16:49:46.813Z,42.08
2022-09-12T16:52:16.478Z,41.88
2022-09-12T16:54:46.464Z,42.52
2022-09-12T16:57:13.400Z,43.10
2022-09-12T16:59:40.313Z,43.12
2022-09-12T17:02:12.175Z,43.45
2022-09-12T17:04:39.603Z,43.60
2022-09-12T17:07:06.933Z,44.41
2022-09-12T17:09:34.154Z,44.50
2022-09-12T17:12:01.207Z,44.89
2022-09-12T17:14:28.159Z,45.41
2022-09-12T17:16:55.086Z,45.54
2022-09-12T17:19:29.887Z,45.70
2022-09-12T17:21:57.804Z,46.12
2022-09-12T17:24:24.970Z,46.87
2022-09-12T17:26:53.390Z,47.92
2022-09-12T17:29:20.738Z,48.21
2022-09-12T17:31:48.117Z,49.40
2022-09-12T17:34:16.225Z,50.17
2022-09-12T17:36:44.486Z,50.29
2022-09-12T17:39:13.547Z,51.65
2022-09-12T17:41:45.736Z,51.86
2022-09-12T17:44:15.080Z,53.14
2022-09-12T17:46:43.098Z,53.38
2022-09-12T17:49:16.277Z,59.05
2022-09-12T17:51:43.893Z,60.42
2022-09-12T17:54:15.650Z,59.29
2022-09-12T17:56:44.282Z,62.31
2022-09-12T17:59:17.293Z,61.70
2022-09-12T18:02:02.684Z,61.95
2022-09-12T18:04:30.034Z,62.05
2022-09-12T18:06:57.739Z,61.55
2022-09-12T18:09:28.192Z,62.17
2022-09-12T18:11:55.526Z,62.94
2022-09-12T18:14:23.619Z,65.58
2022-09-12T18:16:50.730Z,65.72
2022-09-12T18:19:18.388Z,70.64
2022-09-12T18:21:45.373Z,71.09
2022-09-12T18:24:12.766Z,73.96
2022-09-12T18:26:40.034Z,69.56
2022-09-12T18:29:07.683Z,67.00
2022-09-12T18:31:34.735Z,65.63
2022-09-12T18:34:02.551Z,66.62
2022-09-12T18:36:30.615Z,65.78
2022-09-12T18:38:59.173Z,67.12
2022-09-12T18:41:28.745Z,66.61
2022-09-12T18:43:59.649Z,67.18
2022-09-12T18:46:29.168Z,67.99
2022-09-12T18:48:59.799Z,67.99
2022-09-12T18:51:34.843Z,68.02
2022-09-12T18:54:08.723Z,66.88
2022-09-12T18:56:38.232Z,67.29
2022-09-12T18:59:06.824Z,67.92
2022-09-12T19:01:36.547Z,69.11
2022-09-12T19:04:04.946Z,68.90
2022-09-12T19:06:36.889Z,68.33
2022-09-12T19:09:07.966Z,69.19
2022-09-12T19:11:38.333Z,69.90
2022-09-12T19:14:06.759Z,72.28
2022-09-12T19:16:34.664Z,69.53
2022-09-12T19:19:02.570Z,70.57
2022-09-12T19:21:32.056Z,72.95
2022-09-12T19:24:03.491Z,73.24
2022-09-12T19:26:30.525Z,71.35
2022-09-12T19:28:58.477Z,71.20
2022-09-12T19:31:26.067Z,70.22
2022-09-12T19:33:53.099Z,70.25
2022-09-12T19:36:43.974Z,68.98
2022-09-12T19:39:09.946Z,67.92
2022-09-12T19:41:37.025Z,68.35
2022-09-12T19:44:05.141Z,67.92
2022-09-12T19:46:32.209Z,68.23
2022-09-12T19:48:59.312Z,67.31
2022-09-12T19:51:26.414Z,67.89
2022-09-12T19:53:53.918Z,67.98
2022-09-12T19:56:21.093Z,68.02
2022-09-12T19:58:55.296Z,72.49
2022-09-12T20:01:29.911Z,75.36
2022-09-12T20:03:58.368Z,76.84
2022-09-12T20:06:26.215Z,78.44
2022-09-12T20:08:53.504Z,77.96
2022-09-12T20:11:23.612Z,78.84
2022-09-12T20:13:51.602Z,79.16
2022-09-12T20:16:22.131Z,79.71
2022-09-12T20:19:08.335Z,80.89
2022-09-12T20:21:36.694Z,83.73
2022-09-12T20:24:10.109Z,82.20
2022-09-12T20:26:37.789Z,84.50
2022-09-12T20:29:06.809Z,86.52
2022-09-12T20:31:35.537Z,86.11
2022-09-12T20:34:03.163Z,86.87
2022-09-12T20:36:30.442Z,86.94
2022-09-12T20:39:01.029Z,86.49
2022-09-12T20:41:31.207Z,83.73
2022-09-12T20:43:58.322Z,84.89
2022-09-12T20:46:26.913Z,84.71
2022-09-12T20:48:54.799Z,81.01
2022-09-12T20:51:22.766Z,80.63
2022-09-12T20:53:54.552Z,78.29
2022-09-12T20:56:22.718Z,79.55
2022-09-12T20:58:50.065Z,81.33
2022-09-12T21:01:17.270Z,80.02
2022-09-12T21:03:45.047Z,80.22
2022-09-12T21:06:16.939Z,80.21
2022-09-12T21:08:45.377Z,79.48
2022-09-12T21:11:12.542Z,78.66
2022-09-12T21:13:39.693Z,81.90
2022-09-12T21:16:10.062Z,83.31
2022-09-12T21:18:37.900Z,81.81
2022-09-12T21:21:05.596Z,80.44
2022-09-12T21:23:33.649Z,84.27
2022-09-12T21:26:01.767Z,85.02
2022-09-12T21:28:29.129Z,86.92
2022-09-12T21:30:56.517Z,86.24
2022-09-12T21:33:24.388Z,77.81
2022-09-12T21:35:51.272Z,81.71
2022-09-12T21:38:19.679Z,82.78
2022-09-12T21:40:47.601Z,80.36
2022-09-12T21:43:14.938Z,83.88
2022-09-12T21:45:42.216Z,83.28
2022-09-12T21:48:09.451Z,86.25
2022-09-12T21:50:36.320Z,85.11
2022-09-12T21:53:03.552Z,88.71
2022-09-12T21:55:31.127Z,84.04
2022-09-12T21:57:58.060Z,82.40
2022-09-12T22:00:25.114Z,79.73
2022-09-12T22:02:53.162Z,75.63
2022-09-12T22:05:21.238Z,81.67
2022-09-12T22:07:48.165Z,83.25
2022-09-12T22:10:15.207Z,84.56
2022-09-12T22:12:46.131Z,82.80
2022-09-12T22:15:38.767Z,86.18
2022-09-12T22:18:02.008Z,88.94
2022-09-12T22:20:28.903Z,89.34
2022-09-12T22:23:14.115Z,89.50
2022-09-12T22:25:41.526Z,89.42
2022-09-12T22:28:08.481Z,90.89
2022-09-12T22:30:35.505Z,88.56
2022-09-12T22:33:02.416Z,87.46
2022-09-12T22:35:29.382Z,89.51
2022-09-12T22:37:56.252Z,87.11
2022-09-12T22:40:23.340Z,82.75
2022-09-12T22:42:52.909Z,82.85
2022-09-12T22:45:19.902Z,85.51
2022-09-12T22:47:47.244Z,85.32
2022-09-12T22:50:14.461Z,87.40
2022-09-12T22:52:41.598Z,88.59
2022-09-12T22:55:09.852Z,86.53
2022-09-12T22:57:37.422Z,90.29
2022-09-12T23:00:10.609Z,91.68
2022-09-12T23:02:38.097Z,92.36
2022-09-12T23:05:06.043Z,93.87
2022-09-12T23:07:33.536Z,95.89
2022-09-12T23:10:01.002Z,94.85
2022-09-12T23:12:27.954Z,95.21
2022-09-12T23:14:54.884Z,95.48
2022-09-12T23:17:21.749Z,96.07
2022-09-12T23:19:48.656Z,97.06
2022-09-12T23:22:15.600Z,97.41
2022-09-12T23:24:42.474Z,97.04
2022-09-12T23:27:09.509Z,97.38
2022-09-12T23:29:36.469Z,97.83
2022-09-12T23:32:06.752Z,99.58
2022-09-12T23:34:33.911Z,100.00
2022-09-12T23:37:00.777Z,98.51
2022-09-12T23:39:27.937Z,99.29
2022-09-12T23:41:55.476Z,98.78
2022-09-12T23:44:22.352Z,98.15
2022-09-12T23:46:49.228Z,98.48
2022-09-12T23:49:16.123Z,100.00
2022-09-12T23:51:42.977Z,99.68
2022-09-12T23:54:09.859Z,100.00
2022-09-12T23:56:37.110Z,100.00
2022-09-12T23:59:04.918Z,100.00
